Time;durP1;ratioP1;P1;durP2;ratioP2;P2;SDS_P1;SDS_P2;PMS_P1;PMS_P2;Temp;Humidity;BMP_temperature;BMP_pressure;BME280_temperature;BME280_humidity;BME280_pressure;Samples;Min_cycle;Max_cycle;Signal;HPM_P1;HPM_P2
2022/06/14 00:03:09;;;;;;;;;;;11.40;99.90;;;;;;5048192;28;19936;-67
2022/06/14 00:05:41;;;;;;;;;;;11.20;99.90;;;;;;5042906;28;19986;-68
2022/06/14 00:08:07;;;;;;;;;;;11.10;99.90;;;;;;5050322;28;21823;-68
2022/06/14 00:10:34;;;;;;;;;;;10.90;99.90;;;;;;5049952;28;20352;-68
2022/06/14 00:13:04;;;;;;;;;;;10.80;99.90;;;;;;5045596;28;20292;-67
2022/06/14 00:15:31;;;;;;;;;;;10.60;99.90;;;;;;5047989;28;19932;-68
2022/06/14 00:17:58;;;;;;;;;;;10.50;99.90;;;;;;5038191;28;19926;-67
2022/06/14 00:20:25;;;;;;;;;;;10.50;99.90;;;;;;5043500;28;19976;-68
2022/06/14 00:22:54;;;;;;;;;;;10.40;99.90;;;;;;5045939;28;19941;-68
2022/06/14 00:25:26;;;;;;;;;;;10.40;99.90;;;;;;5049306;28;20645;-68
2022/06/14 00:27:52;;;;;;;;;;;10.20;99.90;;;;;;5042952;28;19931;-68
2022/06/14 00:30:20;;;;;;;;;;;10.10;99.90;;;;;;5046106;28;20448;-68
2022/06/14 00:32:47;;;;;;;;;;;10.00;99.90;;;;;;5053154;28;19924;-68
2022/06/14 00:35:13;;;;;;;;;;;9.90;99.90;;;;;;5047049;28;19963;-68
2022/06/14 00:37:40;;;;;;;;;;;9.80;99.90;;;;;;5049219;28;19924;-68
2022/06/14 00:40:08;;;;;;;;;;;9.80;99.90;;;;;;5050939;28;19947;-68
2022/06/14 00:42:35;;;;;;;;;;;9.70;99.90;;;;;;5049701;28;20019;-67
2022/06/14 00:45:04;;;;;;;;;;;9.60;99.90;;;;;;5045649;28;19943;-67
2022/06/14 00:47:35;;;;;;;;;;;9.50;99.90;;;;;;5052298;28;19979;-67
2022/06/14 00:50:03;;;;;;;;;;;9.40;99.90;;;;;;5046308;28;19931;-68
2022/06/14 00:52:37;;;;;;;;;;;9.30;99.90;;;;;;5050899;28;20315;-68
2022/06/14 00:55:10;;;;;;;;;;;9.20;99.90;;;;;;5051499;28;19929;-67
2022/06/14 00:57:42;;;;;;;;;;;9.00;99.90;;;;;;5050080;28;19925;-67
2022/06/14 01:00:27;;;;;;;;;;;8.80;99.90;;;;;;5049756;28;19968;-68
2022/06/14 01:02:55;;;;;;;;;;;8.70;99.90;;;;;;5045794;28;20374;-68
2022/06/14 01:05:25;;;;;;;;;;;8.70;99.90;;;;;;5049922;28;20299;-68
2022/06/14 01:07:56;;;;;;;;;;;8.80;99.90;;;;;;5044269;28;19932;-68
2022/06/14 01:10:31;;;;;;;;;;;8.80;99.90;;;;;;5049638;28;19924;-67
2022/06/14 01:13:05;;;;;;;;;;;8.90;99.90;;;;;;5050391;28;19925;-68
2022/06/14 01:15:33;;;;;;;;;;;8.90;99.90;;;;;;5050784;28;19979;-68
2022/06/14 01:18:04;;;;;;;;;;;8.90;99.90;;;;;;5051974;28;20020;-68
2022/06/14 01:20:31;;;;;;;;;;;9.00;99.90;;;;;;5044345;28;20004;-68
2022/06/14 01:22:58;;;;;;;;;;;9.00;99.90;;;;;;5052964;28;19925;-68
2022/06/14 01:25:25;;;;;;;;;;;9.00;99.90;;;;;;5049343;28;19928;-68
2022/06/14 01:27:53;;;;;;;;;;;9.00;99.90;;;;;;5052500;28;19925;-68
2022/06/14 01:30:26;;;;;;;;;;;9.00;99.90;;;;;;5052621;28;19925;-68
2022/06/14 01:32:56;;;;;;;;;;;9.00;99.90;;;;;;5048418;28;19951;-68
2022/06/14 01:35:24;;;;;;;;;;;9.00;99.90;;;;;;5044978;28;19924;-68
2022/06/14 01:37:53;;;;;;;;;;;9.00;99.90;;;;;;5052300;28;20012;-68
2022/06/14 01:40:43;;;;;;;;;;;9.00;99.90;;;;;;5050983;28;19931;-68
2022/06/14 01:43:15;;;;;;;;;;;9.00;99.90;;;;;;5045449;28;20011;-68
2022/06/14 01:46:00;;;;;;;;;;;8.90;99.90;;;;;;5052106;28;19924;-68
2022/06/14 01:48:30;;;;;;;;;;;8.90;99.90;;;;;;5045218;28;19929;-68
2022/06/14 01:54:12;;;;;;;;;;;8.80;99.90;;;;;;5048294;28;19925;-68
2022/06/14 01:56:43;;;;;;;;;;;8.70;99.90;;;;;;5045598;28;19925;-68
2022/06/14 01:59:28;;;;;;;;;;;8.60;99.90;;;;;;5048773;28;19924;-68
2022/06/14 02:02:03;;;;;;;;;;;8.60;99.90;;;;;;5049085;28;20032;-68
2022/06/14 02:04:38;;;;;;;;;;;8.40;99.90;;;;;;5048063;28;19976;-68
2022/06/14 02:07:07;;;;;;;;;;;8.30;99.90;;;;;;5044658;28;20380;-68
2022/06/14 02:09:43;;;;;;;;;;;8.20;99.90;;;;;;5045859;28;20007;-68
2022/06/14 02:12:13;;;;;;;;;;;8.20;99.90;;;;;;5045509;28;20330;-68
2022/06/14 02:14:46;;;;;;;;;;;8.20;99.90;;;;;;5049153;28;19931;-68
2022/06/14 02:17:15;;;;;;;;;;;8.10;99.90;;;;;;5044501;28;19931;-68
2022/06/14 02:19:45;;;;;;;;;;;8.10;99.90;;;;;;5044451;28;19935;-68
2022/06/14 02:22:14;;;;;;;;;;;8.10;99.90;;;;;;5050115;28;19931;-68
2022/06/14 02:24:47;;;;;;;;;;;8.00;99.90;;;;;;5046144;28;19925;-68
2022/06/14 02:27:14;;;;;;;;;;;8.00;99.90;;;;;;5049934;28;19929;-68
2022/06/14 02:29:52;;;;;;;;;;;7.90;99.90;;;;;;5051286;28;19925;-68
2022/06/14 02:32:27;;;;;;;;;;;7.90;99.90;;;;;;5048675;28;20377;-68
2022/06/14 02:34:57;;;;;;;;;;;8.00;99.90;;;;;;5047958;28;19951;-68
2022/06/14 02:37:27;;;;;;;;;;;8.20;99.90;;;;;;5044738;28;19925;-68
2022/06/14 02:39:58;;;;;;;;;;;8.20;99.90;;;;;;5050388;28;19924;-68
2022/06/14 02:42:33;;;;;;;;;;;8.20;99.90;;;;;;5040982;28;19931;-68
2022/06/14 02:45:03;;;;;;;;;;;8.20;99.90;;;;;;5047360;28;19928;-68
2022/06/14 02:47:31;;;;;;;;;;;8.10;99.90;;;;;;5050895;28;20019;-68
2022/06/14 02:50:06;;;;;;;;;;;8.10;99.90;;;;;;5044976;28;19992;-68
2022/06/14 02:52:53;;;;;;;;;;;8.00;99.90;;;;;;5042927;28;20418;-68
2022/06/14 02:55:31;;;;;;;;;;;7.90;99.90;;;;;;5041695;28;20422;-68
2022/06/14 02:58:04;;;;;;;;;;;7.80;99.90;;;;;;5049768;28;19925;-68
2022/06/14 03:00:36;;;;;;;;;;;7.60;99.90;;;;;;5047223;28;19945;-68
2022/06/14 03:03:09;;;;;;;;;;;7.60;99.90;;;;;;5057194;28;19931;-68
2022/06/14 03:05:39;;;;;;;;;;;7.60;99.90;;;;;;5045523;28;19929;-68
2022/06/14 03:08:21;;;;;;;;;;;7.70;99.90;;;;;;5056673;28;19935;-67
2022/06/14 03:10:47;;;;;;;;;;;7.60;99.90;;;;;;5042594;28;20264;-67
2022/06/14 03:13:24;;;;;;;;;;;7.60;99.90;;;;;;5047638;28;19929;-67
2022/06/14 03:15:55;;;;;;;;;;;7.60;99.90;;;;;;5045962;28;19936;-67
2022/06/14 03:18:30;;;;;;;;;;;7.60;99.90;;;;;;5048710;28;19932;-68
2022/06/14 03:21:09;;;;;;;;;;;7.60;99.90;;;;;;5044899;28;19932;-67
2022/06/14 03:23:51;;;;;;;;;;;7.60;99.90;;;;;;5042930;28;19931;-67
2022/06/14 03:26:35;;;;;;;;;;;7.60;99.90;;;;;;5040876;28;19925;-68
2022/06/14 03:29:10;;;;;;;;;;;7.60;99.90;;;;;;5061692;28;19935;-68
2022/06/14 03:31:41;;;;;;;;;;;7.60;99.90;;;;;;5049481;28;20413;-68
2022/06/14 03:34:16;;;;;;;;;;;7.70;99.90;;;;;;5049683;28;20558;-68
2022/06/14 03:36:42;;;;;;;;;;;7.70;99.90;;;;;;5048132;28;20020;-68
2022/06/14 03:39:11;;;;;;;;;;;7.70;99.90;;;;;;5050438;28;19971;-69
2022/06/14 03:41:40;;;;;;;;;;;7.80;99.90;;;;;;5050583;28;19971;-68
2022/06/14 03:44:06;;;;;;;;;;;7.80;99.90;;;;;;5049618;28;19932;-68
2022/06/14 03:46:47;;;;;;;;;;;7.90;99.90;;;;;;5048189;28;20265;-68
2022/06/14 03:49:15;;;;;;;;;;;8.00;99.90;;;;;;5042034;28;19925;-68
2022/06/14 03:51:48;;;;;;;;;;;8.10;99.90;;;;;;5061077;28;19924;-67
2022/06/14 03:54:34;;;;;;;;;;;8.20;99.90;;;;;;5048457;28;19925;-68
2022/06/14 03:57:08;;;;;;;;;;;8.30;99.90;;;;;;5048659;28;19925;-69
2022/06/14 03:59:35;;;;;;;;;;;8.30;99.90;;;;;;5053251;28;19924;-69
2022/06/14 04:02:17;;;;;;;;;;;8.40;99.90;;;;;;5052491;28;19979;-69
2022/06/14 04:04:49;;;;;;;;;;;8.50;99.90;;;;;;5054524;28;19999;-69
2022/06/14 04:07:34;;;;;;;;;;;8.50;99.90;;;;;;5058557;28;19936;-68
2022/06/14 04:10:07;;;;;;;;;;;8.60;99.90;;;;;;5053264;28;19932;-69
2022/06/14 04:12:52;;;;;;;;;;;8.70;99.90;;;;;;5056138;28;19979;-69
2022/06/14 04:15:39;;;;;;;;;;;8.90;99.90;;;;;;5052703;28;19925;-69
2022/06/14 04:18:38;;;;;;;;;;;9.00;99.90;;;;;;5051944;28;20387;-69
2022/06/14 04:21:10;;;;;;;;;;;9.10;99.90;;;;;;5057322;28;19931;-68
2022/06/14 04:23:50;;;;;;;;;;;9.40;99.90;;;;;;5068029;28;19935;-68
2022/06/14 04:26:35;;;;;;;;;;;9.50;99.90;;;;;;5059128;28;20394;-68
2022/06/14 04:29:12;;;;;;;;;;;9.60;99.90;;;;;;5052589;28;19960;-69
2022/06/14 04:31:44;;;;;;;;;;;9.70;99.90;;;;;;5053856;28;19925;-69
2022/06/14 04:34:18;;;;;;;;;;;9.90;99.90;;;;;;5057027;28;20019;-69
2022/06/14 04:36:55;;;;;;;;;;;10.00;99.90;;;;;;5050969;28;19939;-68
2022/06/14 04:39:42;;;;;;;;;;;10.20;99.90;;;;;;5050894;28;19925;-68
2022/06/14 04:42:09;;;;;;;;;;;10.80;99.90;;;;;;5049899;28;20016;-68
2022/06/14 04:44:36;;;;;;;;;;;12.80;99.90;;;;;;5052830;28;20023;-68
2022/06/14 04:47:12;;;;;;;;;;;14.90;99.90;;;;;;5052075;28;19956;-67
2022/06/14 04:49:44;;;;;;;;;;;16.70;99.90;;;;;;5054444;28;19924;-67
2022/06/14 04:52:11;;;;;;;;;;;18.00;99.90;;;;;;5060071;28;19994;-67
2022/06/14 04:54:44;;;;;;;;;;;19.30;99.90;;;;;;5046960;28;19945;-67
2022/06/14 04:57:33;;;;;;;;;;;20.50;99.90;;;;;;5047815;28;19931;-67
2022/06/14 05:00:27;;;;;;;;;;;21.80;99.90;;;;;;5047587;28;19928;-67
2022/06/14 05:02:57;;;;;;;;;;;22.80;99.90;;;;;;5060658;28;20027;-67
2022/06/14 05:05:24;;;;;;;;;;;23.40;99.90;;;;;;5040908;28;19956;-66
2022/06/14 05:07:51;;;;;;;;;;;;;;;;;;5063195;28;20283;-67
2022/06/14 05:10:26;;;;;;;;;;;24.40;99.90;;;;;;5043512;28;20006;-67
2022/06/14 05:13:09;;;;;;;;;;;24.60;99.90;;;;;;5057670;28;19929;-67
2022/06/14 05:15:44;;;;;;;;;;;25.10;99.90;;;;;;5051562;28;19951;-67
2022/06/14 05:18:27;;;;;;;;;;;25.20;98.90;;;;;;5054925;28;19964;-67
2022/06/14 05:21:08;;;;;;;;;;;24.90;98.70;;;;;;5050549;28;19960;-67
2022/06/14 05:23:43;;;;;;;;;;;24.40;98.00;;;;;;5064836;28;19932;-66
2022/06/14 05:26:17;;;;;;;;;;;23.80;97.80;;;;;;5073554;28;20387;-66
2022/06/14 05:28:52;;;;;;;;;;;23.50;98.50;;;;;;5069084;28;20395;-67
2022/06/14 05:31:22;;;;;;;;;;;23.40;98.30;;;;;;5065317;28;20121;-66
2022/06/14 05:33:59;;;;;;;;;;;23.70;98.40;;;;;;5067587;28;19925;-66
2022/06/14 05:36:46;;;;;;;;;;;23.90;98.10;;;;;;5063776;28;19999;-67
2022/06/14 05:39:21;;;;;;;;;;;24.00;97.70;;;;;;5060440;28;19956;-68
2022/06/14 05:41:50;;;;;;;;;;;24.00;97.40;;;;;;5049584;28;20031;-67
2022/06/14 05:44:35;;;;;;;;;;;23.70;97.50;;;;;;5055803;28;19937;-67
2022/06/14 05:47:22;;;;;;;;;;;23.50;97.70;;;;;;5051336;28;19975;-66
2022/06/14 05:49:54;;;;;;;;;;;23.50;97.90;;;;;;5054495;28;19925;-66
2022/06/14 05:52:26;;;;;;;;;;;23.60;97.60;;;;;;5050213;28;19925;-66
2022/06/14 05:55:08;;;;;;;;;;;23.50;97.60;;;;;;5054106;28;20542;-67
2022/06/14 05:57:40;;;;;;;;;;;23.70;97.50;;;;;;5050919;28;19924;-67
2022/06/14 06:00:14;;;;;;;;;;;23.90;97.20;;;;;;5046363;28;19977;-61
2022/06/14 06:03:02;;;;;;;;;;;24.50;97.60;;;;;;5051248;28;20023;-65
2022/06/14 06:05:51;;;;;;;;;;;25.00;96.80;;;;;;5050036;28;19928;-66
2022/06/14 06:08:24;;;;;;;;;;;25.60;96.80;;;;;;5059488;28;20256;-66
2022/06/14 06:10:52;;;;;;;;;;;26.00;95.70;;;;;;5047738;28;20521;-65
2022/06/14 06:13:29;;;;;;;;;;;26.00;95.60;;;;;;5057000;28;20013;-65
2022/06/14 06:15:59;;;;;;;;;;;25.90;95.30;;;;;;5049092;28;19954;-66
2022/06/14 06:18:48;;;;;;;;;;;25.60;95.10;;;;;;5045233;28;19937;-66
2022/06/14 06:21:16;;;;;;;;;;;25.10;95.70;;;;;;5049130;28;19928;-66
2022/06/14 06:24:09;;;;;;;;;;;25.10;95.50;;;;;;5043677;28;19928;-65
2022/06/14 06:26:37;;;;;;;;;;;24.50;96.10;;;;;;4985922;28;19926;-65
2022/06/14 06:29:08;;;;;;;;;;;24.70;96.40;;;;;;5002332;28;19926;-66
2022/06/14 06:31:38;;;;;;;;;;;25.20;96.00;;;;;;5006143;28;19929;-66
2022/06/14 06:34:06;;;;;;;;;;;25.50;95.40;;;;;;5007110;28;19926;-66
2022/06/14 06:36:36;;;;;;;;;;;25.80;94.90;;;;;;4994933;28;20016;-65
2022/06/14 06:39:03;;;;;;;;;;;25.70;95.20;;;;;;5000270;28;20603;-66
2022/06/14 06:44:28;;;;;;;;;;;26.10;94.90;;;;;;5004737;28;19929;-66
2022/06/14 06:47:02;;;;;;;;;;;26.30;94.40;;;;;;5003765;28;19965;-66
2022/06/14 06:49:36;;;;;;;;;;;26.80;94.10;;;;;;5005317;28;20392;-66
2022/06/14 06:52:04;;;;;;;;;;;26.70;94.00;;;;;;5008262;28;19925;-66
2022/06/14 06:54:38;;;;;;;;;;;26.90;94.00;;;;;;5003802;28;19944;-66
2022/06/14 06:57:14;;;;;;;;;;;26.90;94.40;;;;;;4988747;28;19926;-66
2022/06/14 06:59:42;;;;;;;;;;;27.30;93.80;;;;;;5006403;28;19929;-66
2022/06/14 07:02:35;;;;;;;;;;;27.50;94.10;;;;;;5011805;28;19925;-66
2022/06/14 07:05:09;;;;;;;;;;;27.10;92.90;;;;;;5002382;28;19932;-64
2022/06/14 07:07:44;;;;;;;;;;;26.90;94.20;;;;;;5003986;28;20015;-65
2022/06/14 07:10:30;;;;;;;;;;;27.20;94.00;;;;;;5007224;28;20024;-67
2022/06/14 07:13:00;;;;;;;;;;;27.60;93.00;;;;;;5005634;28;19975;-65
2022/06/14 07:15:27;;;;;;;;;;;27.60;92.80;;;;;;5004503;28;19936;-69
2022/06/14 07:17:57;;;;;;;;;;;27.40;93.40;;;;;;5006865;28;20475;-65
2022/06/14 07:20:30;;;;;;;;;;;28.00;92.90;;;;;;5004983;28;19925;-66
2022/06/14 07:23:08;;;;;;;;;;;28.60;92.50;;;;;;5006537;28;19936;-65
2022/06/14 07:25:38;;;;;;;;;;;28.80;92.10;;;;;;5006496;28;19929;-65
2022/06/14 07:28:17;;;;;;;;;;;28.60;92.10;;;;;;4999394;28;19973;-67
2022/06/14 07:30:49;;;;;;;;;;;28.50;91.60;;;;;;5002606;28;19965;-65
2022/06/14 07:33:17;;;;;;;;;;;28.20;92.00;;;;;;4993919;28;19991;-64
2022/06/14 07:35:52;;;;;;;;;;;28.00;91.80;;;;;;5011033;28;19926;-64
2022/06/14 07:38:37;;;;;;;;;;;28.50;92.60;;;;;;5007401;28;20013;-65
2022/06/14 07:41:15;;;;;;;;;;;28.70;91.40;;;;;;5011804;28;19964;-64
2022/06/14 07:44:02;;;;;;;;;;;28.30;91.80;;;;;;5047471;28;19925;-64
2022/06/14 07:46:36;;;;;;;;;;;28.30;91.60;;;;;;5043859;28;19925;-64
2022/06/14 07:49:26;;;;;;;;;;;28.30;91.70;;;;;;5038928;28;19925;-64
2022/06/14 07:51:55;;;;;;;;;;;28.70;91.80;;;;;;5029567;28;20294;-65
2022/06/14 07:54:28;;;;;;;;;;;29.20;92.10;;;;;;5041688;28;20016;-65
2022/06/14 07:56:57;;;;;;;;;;;29.30;91.60;;;;;;5044317;28;20015;-65
2022/06/14 07:59:27;;;;;;;;;;;29.50;91.00;;;;;;5035377;28;19939;-65
2022/06/14 08:01:53;;;;;;;;;;;29.60;90.70;;;;;;5049429;28;20004;-64
2022/06/14 08:04:40;;;;;;;;;;;29.50;91.60;;;;;;5048789;28;19928;-65
2022/06/14 08:07:11;;;;;;;;;;;29.30;90.90;;;;;;5049270;28;19929;-64
2022/06/14 08:09:57;;;;;;;;;;;28.90;90.70;;;;;;5050033;28;20008;-64
2022/06/14 08:12:32;;;;;;;;;;;28.30;90.50;;;;;;5047635;28;19932;-63
2022/06/14 08:15:08;;;;;;;;;;;28.20;91.20;;;;;;5049733;28;19931;-64
2022/06/14 08:17:41;;;;;;;;;;;28.50;91.40;;;;;;5042393;28;20399;-65
2022/06/14 08:20:12;;;;;;;;;;;28.70;91.20;;;;;;5049410;28;19964;-66
2022/06/14 08:22:46;;;;;;;;;;;29.00;90.90;;;;;;5043442;28;19928;-65
2022/06/14 08:25:15;;;;;;;;;;;28.80;90.30;;;;;;5049121;28;19931;-64
2022/06/14 08:27:45;;;;;;;;;;;28.30;90.60;;;;;;5040594;28;19937;-64
2022/06/14 08:30:22;;;;;;;;;;;28.40;90.10;;;;;;5056910;28;19928;-64
2022/06/14 08:32:54;;;;;;;;;;;27.90;90.20;;;;;;5049174;28;19925;-64
2022/06/14 08:35:27;;;;;;;;;;;28.00;91.50;;;;;;5048322;28;20016;-65
2022/06/14 08:38:04;;;;;;;;;;;28.90;90.20;;;;;;5049791;28;19931;-65
2022/06/14 08:40:37;;;;;;;;;;;28.60;90.20;;;;;;5048334;28;19931;-65
2022/06/14 08:43:08;;;;;;;;;;;28.50;90.00;;;;;;5048756;28;19925;-66
2022/06/14 08:46:02;;;;;;;;;;;29.30;90.80;;;;;;5059049;28;19971;-65
2022/06/14 08:48:38;;;;;;;;;;;29.30;89.20;;;;;;5051709;28;20387;-66
2022/06/14 08:51:26;;;;;;;;;;;29.40;89.50;;;;;;5053287;28;19939;-64
2022/06/14 08:54:12;;;;;;;;;;;29.60;90.00;;;;;;5046576;28;19932;-65
2022/06/14 08:57:01;;;;;;;;;;;29.20;88.20;;;;;;5052429;28;19924;-64
2022/06/14 08:59:50;;;;;;;;;;;29.40;89.80;;;;;;5052284;28;19925;-64
2022/06/14 09:02:27;;;;;;;;;;;29.40;86.30;;;;;;5052884;28;19931;-64
2022/06/14 09:05:09;;;;;;;;;;;29.00;85.50;;;;;;5039235;28;20446;-64
2022/06/14 09:07:44;;;;;;;;;;;29.30;86.80;;;;;;5051580;28;19925;-64
2022/06/14 09:10:17;;;;;;;;;;;29.80;87.30;;;;;;5052213;28;19931;-66
2022/06/14 09:13:07;;;;;;;;;;;29.90;86.60;;;;;;5042796;28;19951;-65
2022/06/14 09:15:52;;;;;;;;;;;29.60;85.20;;;;;;5045254;28;20348;-65
2022/06/14 09:18:37;;;;;;;;;;;29.50;84.10;;;;;;5048547;28;19925;-66
2022/06/14 09:21:28;;;;;;;;;;;30.40;85.70;;;;;;5043934;28;19925;-65
2022/06/14 09:24:16;;;;;;;;;;;30.90;83.60;;;;;;5039613;28;19928;-65
2022/06/14 09:26:46;;;;;;;;;;;30.70;83.80;;;;;;5042607;28;19924;-63
2022/06/14 09:29:27;;;;;;;;;;;31.00;82.10;;;;;;5049374;28;20032;-64
2022/06/14 09:32:10;;;;;;;;;;;31.20;82.60;;;;;;5043073;28;19968;-64
2022/06/14 09:35:04;;;;;;;;;;;31.60;81.20;;;;;;5051046;28;19932;-64
2022/06/14 09:37:36;;;;;;;;;;;31.50;82.20;;;;;;5050814;28;19990;-64
2022/06/14 09:40:03;;;;;;;;;;;31.50;83.10;;;;;;5042863;28;19925;-64
2022/06/14 09:42:33;;;;;;;;;;;30.70;82.00;;;;;;5051989;28;19931;-64
2022/06/14 09:45:18;;;;;;;;;;;30.20;81.20;;;;;;5048923;28;20015;-64
2022/06/14 09:47:57;;;;;;;;;;;30.20;82.20;;;;;;5050664;28;20322;-63
2022/06/14 09:50:43;;;;;;;;;;;29.50;82.10;;;;;;5047025;28;19925;-63
2022/06/14 09:53:28;;;;;;;;;;;29.60;82.10;;;;;;5050803;28;19932;-64
2022/06/14 09:56:09;;;;;;;;;;;29.10;82.00;;;;;;5055913;28;19931;-64
2022/06/14 09:58:45;;;;;;;;;;;29.10;82.10;;;;;;5050714;28;20406;-65
2022/06/14 10:01:19;;;;;;;;;;;28.80;80.10;;;;;;5050196;28;19955;-67
2022/06/14 10:04:02;;;;;;;;;;;28.20;79.90;;;;;;5047814;28;19925;-63
2022/06/14 10:06:42;;;;;;;;;;;28.30;82.70;;;;;;5047592;28;19925;-64
2022/06/14 10:09:14;;;;;;;;;;;29.20;81.90;;;;;;5038307;28;20012;-67
2022/06/14 10:11:44;;;;;;;;;;;30.10;79.00;;;;;;5043932;28;19956;-66
2022/06/14 10:14:21;;;;;;;;;;;30.10;80.70;;;;;;5048046;28;19925;-65
2022/06/14 10:16:48;;;;;;;;;;;30.30;79.00;;;;;;5050968;28;19933;-67
2022/06/14 10:19:14;;;;;;;;;;;30.90;80.00;;;;;;5049429;28;20350;-66
2022/06/14 10:22:03;;;;;;;;;;;31.90;80.10;;;;;;5051396;28;19925;-68
2022/06/14 10:24:33;;;;;;;;;;;32.40;77.70;;;;;;5046643;28;20362;-65
2022/06/14 10:30:15;;;;;;;;;;;32.40;75.80;;;;;;5045772;28;19924;-68
2022/06/14 10:32:42;;;;;;;;;;;32.30;77.20;;;;;;5047648;28;19929;-67
2022/06/14 10:35:17;;;;;;;;;;;32.20;77.70;;;;;;5041529;28;20267;-68
2022/06/14 10:38:02;;;;;;;;;;;32.40;76.10;;;;;;5047644;28;19925;-68
2022/06/14 10:40:38;;;;;;;;;;;32.10;75.70;;;;;;5050817;28;19925;-67
2022/06/14 10:43:24;;;;;;;;;;;31.80;77.40;;;;;;5043277;28;19932;-69
2022/06/14 10:46:06;;;;;;;;;;;32.20;74.60;;;;;;5045616;28;19932;-67
2022/06/14 10:48:32;;;;;;;;;;;32.20;73.90;;;;;;5050946;28;19925;-66
2022/06/14 10:51:18;;;;;;;;;;;31.20;74.60;;;;;;5045388;28;19933;-66
2022/06/14 10:53:47;;;;;;;;;;;30.70;76.70;;;;;;5044223;28;19924;-66
2022/06/14 10:56:31;;;;;;;;;;;30.20;75.20;;;;;;5045216;28;19924;-67
2022/06/14 10:58:58;;;;;;;;;;;29.60;74.30;;;;;;5049393;28;20011;-67
2022/06/14 11:01:39;;;;;;;;;;;28.80;74.90;;;;;;5041357;28;20027;-68
2022/06/14 11:04:06;;;;;;;;;;;28.40;75.10;;;;;;5049268;28;19929;-67
2022/06/14 11:07:05;;;;;;;;;;;28.90;76.40;;;;;;5049477;28;19932;-66
2022/06/14 11:09:32;;;;;;;;;;;29.10;76.90;;;;;;5041766;28;19928;-66
2022/06/14 11:12:07;;;;;;;;;;;28.90;76.40;;;;;;5049389;28;19929;-67
2022/06/14 11:14:43;;;;;;;;;;;28.80;78.30;;;;;;5050231;28;20583;-67
2022/06/14 11:17:35;;;;;;;;;;;28.60;76.30;;;;;;5049847;28;20015;-66
2022/06/14 11:20:21;;;;;;;;;;;28.30;76.90;;;;;;5050285;28;20598;-65
2022/06/14 11:22:51;;;;;;;;;;;27.90;76.40;;;;;;5047852;28;19928;-68
2022/06/14 11:25:28;;;;;;;;;;;28.20;73.80;;;;;;5047170;28;19929;-66
2022/06/14 11:28:01;;;;;;;;;;;28.20;74.50;;;;;;5043749;28;19929;-67
2022/06/14 11:30:36;;;;;;;;;;;28.30;73.70;;;;;;5041629;28;20634;-66
2022/06/14 11:33:26;;;;;;;;;;;27.80;73.80;;;;;;5044087;28;20011;-67
2022/06/14 11:36:02;;;;;;;;;;;28.30;76.40;;;;;;5039450;28;19925;-68
2022/06/14 11:38:55;;;;;;;;;;;28.40;75.40;;;;;;5047426;28;19995;-68
2022/06/14 11:41:24;;;;;;;;;;;28.80;73.40;;;;;;5053815;28;19939;-67
2022/06/14 11:43:54;;;;;;;;;;;28.10;73.30;;;;;;5047188;28;19932;-67
2022/06/14 11:46:29;;;;;;;;;;;27.90;73.50;;;;;;5047514;28;19925;-67
2022/06/14 11:48:59;;;;;;;;;;;28.20;75.40;;;;;;5040400;28;19924;-66
2022/06/14 11:51:42;;;;;;;;;;;28.00;73.40;;;;;;5046897;28;19928;-68
2022/06/14 11:54:09;;;;;;;;;;;27.80;72.20;;;;;;5048327;28;19935;-68
2022/06/14 11:56:38;;;;;;;;;;;28.00;73.80;;;;;;5048146;28;19932;-67
2022/06/14 11:59:42;;;;;;;;;;;27.80;72.10;;;;;;5045100;28;21069;-67
2022/06/14 12:02:23;;;;;;;;;;;28.20;71.40;;;;;;5032529;28;19997;-64
2022/06/14 12:05:00;;;;;;;;;;;28.60;72.30;;;;;;5021315;28;19925;-68
2022/06/14 12:07:37;;;;;;;;;;;28.50;69.80;;;;;;5025349;28;19983;-67
2022/06/14 12:10:16;;;;;;;;;;;28.40;71.20;;;;;;5035197;28;19925;-65
2022/06/14 12:13:00;;;;;;;;;;;28.30;72.00;;;;;;5026625;28;20020;-67
2022/06/14 12:15:38;;;;;;;;;;;28.00;72.70;;;;;;5028050;28;20036;-66
2022/06/14 12:18:07;;;;;;;;;;;28.20;73.50;;;;;;5028683;28;19940;-66
2022/06/14 12:20:38;;;;;;;;;;;28.30;72.70;;;;;;5037959;28;19929;-68
2022/06/14 12:23:04;;;;;;;;;;;28.50;73.30;;;;;;5033346;28;19936;-67
2022/06/14 12:28:58;;;;;;;;;;;28.60;72.40;;;;;;5032062;28;19928;-68
2022/06/14 12:31:27;;;;;;;;;;;28.60;73.90;;;;;;5032610;28;19951;-67
2022/06/14 12:34:00;;;;;;;;;;;28.00;72.70;;;;;;5028818;28;20423;-65
2022/06/14 12:36:27;;;;;;;;;;;27.70;72.10;;;;;;5048758;28;20009;-67
2022/06/14 12:38:56;;;;;;;;;;;27.50;72.90;;;;;;5058268;28;20402;-68
2022/06/14 12:41:31;;;;;;;;;;;27.40;74.80;;;;;;5058907;28;19925;-68
2022/06/14 12:44:16;;;;;;;;;;;27.70;74.80;;;;;;5056649;28;19971;-67
2022/06/14 12:46:45;;;;;;;;;;;27.70;75.40;;;;;;5058822;28;19932;-69
2022/06/14 12:49:18;;;;;;;;;;;27.90;74.10;;;;;;5054264;28;19952;-66
2022/06/14 12:51:56;;;;;;;;;;;27.90;74.60;;;;;;5056807;28;19924;-67
2022/06/14 12:54:37;;;;;;;;;;;28.30;74.20;;;;;;5061038;28;19959;-68
2022/06/14 12:57:13;;;;;;;;;;;27.90;72.20;;;;;;5051291;28;19949;-68
2022/06/14 12:59:59;;;;;;;;;;;27.60;73.00;;;;;;5058210;28;19933;-67
2022/06/14 13:02:51;;;;;;;;;;;27.60;73.40;;;;;;5053020;28;19984;-66
2022/06/14 13:05:19;;;;;;;;;;;27.70;73.80;;;;;;5050892;28;19947;-70
2022/06/14 13:07:48;;;;;;;;;;;27.60;75.50;;;;;;5051115;28;19925;-66
2022/06/14 13:10:20;;;;;;;;;;;27.50;75.50;;;;;;5061703;28;19925;-66
2022/06/14 13:13:06;;;;;;;;;;;27.70;74.20;;;;;;5056053;28;20375;-66
2022/06/14 13:15:42;;;;;;;;;;;28.00;73.90;;;;;;5054247;28;19925;-67
2022/06/14 13:18:09;;;;;;;;;;;28.10;73.50;;;;;;5050874;28;19929;-69
2022/06/14 13:20:39;;;;;;;;;;;28.30;74.20;;;;;;5055106;28;19932;-67
2022/06/14 13:23:12;;;;;;;;;;;28.50;74.10;;;;;;5050084;28;19925;-67
2022/06/14 13:25:59;;;;;;;;;;;28.60;76.40;;;;;;5049369;28;20020;-67
2022/06/14 13:28:44;;;;;;;;;;;28.70;73.30;;;;;;5044013;28;19931;-66
2022/06/14 13:31:30;;;;;;;;;;;28.60;72.70;;;;;;5054606;28;19935;-67
2022/06/14 13:33:57;;;;;;;;;;;28.80;73.00;;;;;;5051386;28;19929;-67
2022/06/14 13:36:28;;;;;;;;;;;28.80;72.90;;;;;;5054229;28;19964;-71
2022/06/14 13:39:11;;;;;;;;;;;28.60;72.50;;;;;;5049139;28;19925;-67
2022/06/14 13:41:40;;;;;;;;;;;28.60;71.70;;;;;;5053578;28;19935;-67
2022/06/14 13:44:12;;;;;;;;;;;28.80;71.90;;;;;;5056824;28;20528;-66
2022/06/14 13:46:51;;;;;;;;;;;29.40;72.80;;;;;;5052621;28;20701;-67
2022/06/14 13:49:18;;;;;;;;;;;29.90;71.20;;;;;;5055970;28;19924;-66
2022/06/14 13:52:03;;;;;;;;;;;30.20;71.70;;;;;;5058048;28;19925;-69
2022/06/14 13:54:49;;;;;;;;;;;30.80;71.40;;;;;;5052669;28;19929;-67
2022/06/14 13:57:15;;;;;;;;;;;31.50;71.20;;;;;;5049626;28;20509;-66
2022/06/14 13:59:45;;;;;;;;;;;32.10;71.50;;;;;;5046170;28;19932;-64
2022/06/14 14:02:29;;;;;;;;;;;32.20;69.80;;;;;;5051107;28;20026;-69
2022/06/14 14:05:06;;;;;;;;;;;32.60;69.50;;;;;;5039935;28;20023;-71
2022/06/14 14:07:43;;;;;;;;;;;32.60;69.70;;;;;;5046317;28;19931;-69
2022/06/14 14:10:17;;;;;;;;;;;31.30;69.00;;;;;;5061696;28;20010;-68
2022/06/14 14:12:53;;;;;;;;;;;30.90;70.00;;;;;;5052407;28;19935;-70
2022/06/14 14:15:39;;;;;;;;;;;31.20;69.30;;;;;;5052272;28;20008;-68
2022/06/14 14:18:09;;;;;;;;;;;31.10;68.70;;;;;;5051586;28;19924;-68
2022/06/14 14:20:35;;;;;;;;;;;31.10;69.00;;;;;;5052034;28;19925;-67
2022/06/14 14:23:27;;;;;;;;;;;31.60;68.70;;;;;;5052122;28;19925;-72
2022/06/14 14:26:20;;;;;;;;;;;32.10;67.50;;;;;;5048845;28;19924;-65
2022/06/14 14:28:51;;;;;;;;;;;32.90;66.70;;;;;;5046902;28;19925;-67
2022/06/14 14:31:25;;;;;;;;;;;33.30;66.50;;;;;;5050455;28;19951;-65
2022/06/14 14:33:52;;;;;;;;;;;33.20;65.20;;;;;;5051063;28;20367;-64
2022/06/14 14:36:25;;;;;;;;;;;32.70;65.50;;;;;;5044984;28;19929;-66
2022/06/14 14:38:54;;;;;;;;;;;32.90;65.60;;;;;;5046959;28;19925;-65
2022/06/14 14:41:37;;;;;;;;;;;33.70;65.70;;;;;;5050476;28;19990;-64
2022/06/14 14:44:11;;;;;;;;;;;34.60;65.40;;;;;;5054696;28;19932;-63
2022/06/14 14:46:40;;;;;;;;;;;34.30;65.80;;;;;;5059093;28;19928;-63
2022/06/14 14:49:11;;;;;;;;;;;34.20;64.60;;;;;;5054596;28;19978;-65
2022/06/14 14:51:47;;;;;;;;;;;34.20;64.30;;;;;;5058195;28;20392;-63
2022/06/14 14:54:32;;;;;;;;;;;34.30;64.80;;;;;;5057209;28;19936;-65
2022/06/14 14:57:03;;;;;;;;;;;34.80;63.70;;;;;;5055502;28;19948;-63
2022/06/14 14:59:33;;;;;;;;;;;35.20;63.60;;;;;;5040904;28;19929;-64
2022/06/14 15:05:23;;;;;;;;;;;34.30;62.80;;;;;;5045901;28;19935;-63
2022/06/14 15:08:11;;;;;;;;;;;33.90;62.70;;;;;;5045779;28;20028;-63
2022/06/14 15:10:56;;;;;;;;;;;34.50;63.70;;;;;;5048771;28;20377;-63
2022/06/14 15:13:32;;;;;;;;;;;33.90;63.10;;;;;;5055295;28;19932;-63
2022/06/14 15:16:00;;;;;;;;;;;34.00;62.70;;;;;;5056372;28;20604;-62
2022/06/14 15:21:17;;;;;;;;;;;34.40;63.60;;;;;;5042229;28;19931;-66
2022/06/14 15:24:01;;;;;;;;;;;35.00;63.40;;;;;;5056815;28;19925;-65
2022/06/14 15:26:28;;;;;;;;;;;35.30;63.10;;;;;;5052859;28;19924;-65
2022/06/14 15:28:58;;;;;;;;;;;35.60;62.50;;;;;;5058499;28;20087;-64